Time;durP1;ratioP1;P1;durP2;ratioP2;P2;SDS_P1;SDS_P2;PMS_P1;PMS_P2;Temp;Humidity;BMP_temperature;BMP_pressure;BME280_temperature;BME280_humidity;BME280_pressure;Samples;Min_cycle;Max_cycle;Signal;HPM_P1;HPM_P2
2021/05/01 00:00:52;;;;;;;63.95;34.90;;;;;;;9.14;81.52;94257.39;1732015;81;21201;-51
2021/05/01 00:03:20;;;;;;;61.92;33.18;;;;;;;9.18;81.68;94265.48;1740600;81;21216;-51
2021/05/01 00:05:48;;;;;;;65.57;35.55;;;;;;;9.25;81.45;94263.85;1727177;81;21202;-51
2021/05/01 00:08:16;;;;;;;68.75;39.30;;;;;;;9.24;81.41;94256.21;1730118;81;21169;-50
2021/05/01 00:10:44;;;;;;;60.75;35.80;;;;;;;9.29;81.65;94252.13;1731255;81;21285;-50
2021/05/01 00:13:12;;;;;;;60.95;33.58;;;;;;;9.33;81.36;94259.61;1733069;81;21221;-51
2021/05/01 00:15:40;;;;;;;63.52;35.08;;;;;;;9.24;80.87;94257.59;1724100;81;23448;-50
2021/05/01 00:18:07;;;;;;;87.50;47.55;;;;;;;9.05;80.53;94255.96;1730168;81;21588;-50
2021/05/01 00:20:35;;;;;;;90.72;47.95;;;;;;;8.94;80.96;94257.57;1724812;81;21645;-51
2021/05/01 00:23:03;;;;;;;86.08;48.63;;;;;;;8.95;81.21;94269.48;1733023;81;21150;-50
2021/05/01 00:25:31;;;;;;;83.67;42.15;;;;;;;8.93;81.11;94265.64;1730423;82;21178;-51
2021/05/01 00:27:59;;;;;;;69.07;39.53;;;;;;;8.93;81.28;94261.53;1730351;81;21269;-53
2021/05/01 00:30:27;;;;;;;70.42;37.78;;;;;;;8.95;81.40;94267.33;1734233;81;21183;-50
2021/05/01 00:32:56;;;;;;;79.32;40.58;;;;;;;9.01;81.62;94273.76;1736874;81;21608;-52
2021/05/01 00:35:24;;;;;;;77.50;41.42;;;;;;;9.10;81.86;94277.32;1738945;81;21146;-52
2021/05/01 00:37:54;;;;;;;79.62;42.98;;;;;;;9.18;81.68;94279.20;1729297;81;21170;-52
2021/05/01 00:40:22;;;;;;;76.57;40.20;;;;;;;9.25;82.04;94274.20;1735211;81;21254;-51
2021/05/01 00:42:50;;;;;;;60.55;33.67;;;;;;;9.34;81.80;94273.49;1731327;81;21118;-51
2021/05/01 00:45:18;;;;;;;71.53;39.13;;;;;;;9.38;81.54;94280.98;1732140;81;21618;-51
2021/05/01 00:47:46;;;;;;;72.42;38.85;;;;;;;9.46;81.77;94283.63;1732909;81;21186;-51
2021/05/01 00:50:14;;;;;;;67.40;40.12;;;;;;;9.43;81.08;94287.27;1724376;81;21276;-50
2021/05/01 00:52:43;;;;;;;88.27;40.33;;;;;;;9.35;80.76;94285.41;1725172;81;21217;-51
2021/05/01 00:55:13;;;;;;;73.57;40.88;;;;;;;9.24;80.78;94285.66;1733948;81;21259;-51
2021/05/01 00:57:41;;;;;;;71.57;38.48;;;;;;;9.18;81.28;94288.80;1738673;81;21222;-51
2021/05/01 01:02:57;;;;;;;75.30;37.75;;;;;;;9.29;81.38;94297.41;1730604;81;21152;-49
2021/05/01 01:05:26;;;;;;;69.70;38.28;;;;;;;9.31;80.97;94300.47;1725111;81;21200;-50
2021/05/01 01:07:54;;;;;;;73.25;37.30;;;;;;;9.24;81.13;94304.86;1728647;81;21094;-51
2021/05/01 01:10:23;;;;;;;71.42;37.73;;;;;;;9.25;81.54;94305.02;1738613;81;21106;-51
2021/05/01 01:12:51;;;;;;;70.50;37.78;;;;;;;9.28;81.72;94302.13;1703744;81;21649;-50
2021/05/01 01:15:27;;;;;;;66.00;35.95;;;;;;;9.36;82.01;94304.00;1723269;82;21139;-50
2021/05/01 01:17:55;;;;;;;77.32;36.60;;;;;;;9.43;81.94;94313.36;1732442;81;21206;-57
2021/05/01 01:20:24;;;;;;;78.62;40.25;;;;;;;9.47;81.45;94300.25;1734663;81;21082;-53
2021/05/01 01:22:52;;;;;;;81.02;36.33;;;;;;;9.41;81.42;94297.94;1725727;81;21229;-51
2021/05/01 01:25:20;;;;;;;73.70;36.08;;;;;;;9.39;81.62;94292.11;1740526;81;21182;-51
2021/05/01 01:27:48;;;;;;;72.67;37.60;;;;;;;9.36;81.70;94302.63;1732806;81;21571;-53
2021/05/01 01:30:23;;;;;;;78.07;38.75;;;;;;;9.23;81.33;94304.70;1730591;81;21439;-52
2021/05/01 01:32:49;;;;;;;82.30;39.40;;;;;;;9.12;81.67;94309.81;1727487;81;21163;-52
2021/05/01 01:35:16;;;;;;;83.97;38.65;;;;;;;9.13;81.90;94312.72;1725183;81;21134;-50
2021/05/01 01:37:45;;;;;;;88.60;38.73;;;;;;;9.11;81.90;94315.14;1736578;81;21125;-52
2021/05/01 01:40:16;;;;;;;79.65;36.88;;;;;;;9.05;82.09;94314.20;1730699;81;21277;-51
2021/05/01 01:42:44;;;;;;;72.95;36.65;;;;;;;9.05;82.77;94311.45;1739373;81;21212;-52
2021/05/01 01:45:15;;;;;;;59.63;32.30;;;;;;;9.13;82.97;94295.66;1738754;81;21308;-51
2021/05/01 01:47:43;;;;;;;70.22;32.75;;;;;;;9.20;83.19;94297.34;1740000;80;21198;-51
2021/05/01 01:50:15;;;;;;;63.78;31.70;;;;;;;9.26;83.58;94289.46;1724368;81;21083;-50
2021/05/01 01:52:44;;;;;;;;;;;;;;;9.36;83.69;94300.66;1734109;81;21178;-51
2021/05/01 01:55:15;;;;;;;67.90;35.38;;;;;;;9.35;82.92;94294.23;1724943;81;21202;-50
2021/05/01 01:57:43;;;;;;;69.47;35.48;;;;;;;9.26;82.90;94305.92;1732821;81;21234;-51
2021/05/01 02:00:16;;;;;;;81.67;36.85;;;;;;;9.26;82.98;94301.06;1731243;81;21548;-52
2021/05/01 02:02:44;;;;;;;71.55;35.92;;;;;;;9.24;83.07;94312.48;1725786;82;21122;-52
2021/05/01 02:05:15;;;;;;;64.10;31.80;;;;;;;9.25;83.65;94311.88;1728122;81;21247;-51
2021/05/01 02:07:45;;;;;;;62.90;32.03;;;;;;;9.30;83.61;94305.80;1731822;81;21623;-51
2021/05/01 02:10:14;;;;;;;63.45;32.48;;;;;;;9.33;83.56;94303.53;1729367;81;21115;-51
2021/05/01 02:12:42;;;;;;;63.85;30.82;;;;;;;9.37;83.53;94306.30;1712358;82;21023;-51
2021/05/01 02:15:14;;;;;;;72.08;35.98;;;;;;;9.35;83.18;94308.73;1738546;82;21155;-51
2021/05/01 02:17:46;;;;;;;78.62;33.67;;;;;;;9.25;83.13;94313.25;1738826;82;21067;-49
2021/05/01 02:20:19;;;;;;;73.67;34.83;;;;;;;9.17;83.20;94311.97;1717884;82;22130;-52
2021/05/01 02:22:47;;;;;;;79.58;35.60;;;;;;;9.10;83.18;94316.36;1735706;82;21205;-50
2021/05/01 02:25:15;;;;;;;78.20;35.48;;;;;;;9.08;83.33;94313.30;1721843;82;21204;-52
2021/05/01 02:27:44;;;;;;;74.32;38.28;;;;;;;9.09;83.38;94307.97;1732510;82;21246;-52
2021/05/01 02:30:16;;;;;;;73.28;36.83;;;;;;;9.08;83.80;94311.30;1721466;82;21059;-51
2021/05/01 02:32:44;;;;;;;72.12;36.08;;;;;;;9.08;83.47;94307.81;1727222;82;21582;-50
2021/05/01 02:35:16;;;;;;;58.80;31.85;;;;;;;9.01;83.54;94308.05;1718151;82;21183;-50
2021/05/01 02:37:45;;;;;;;56.40;29.02;;;;;;;9.01;83.50;94310.80;1727406;82;21212;-52
2021/05/01 02:40:14;;;;;;;51.10;25.52;;;;;;;8.94;83.40;94304.20;1730551;81;21091;-53
2021/05/01 02:42:42;;;;;;;50.92;26.12;;;;;;;8.92;83.53;94302.52;1740495;82;21069;-49
2021/05/01 02:45:14;;;;;;;52.23;26.05;;;;;;;8.86;83.66;94304.31;1722618;82;22206;-52
2021/05/01 02:47:41;;;;;;;50.40;27.15;;;;;;;8.83;83.64;94300.31;1730647;82;21097;-52
2021/05/01 02:50:11;;;;;;;53.52;27.55;;;;;;;8.79;83.78;94302.42;1720488;82;21080;-50
2021/05/01 02:52:39;;;;;;;49.40;29.72;;;;;;;8.82;84.09;94309.76;1725461;82;21174;-52
2021/05/01 02:55:09;;;;;;;51.28;26.87;;;;;;;8.83;83.97;94307.92;1716153;81;21100;-51
2021/05/01 02:57:37;;;;;;;57.00;28.20;;;;;;;8.81;84.07;94301.38;1724516;82;22123;-51
2021/05/01 03:00:14;;;;;;;40.30;23.62;;;;;;;8.84;84.73;94309.45;1728385;82;21242;-51
2021/05/01 03:02:42;;;;;;;43.80;26.40;;;;;;;8.94;84.73;94304.20;1727679;80;21195;-50
2021/05/01 03:05:12;;;;;;;46.28;23.25;;;;;;;8.98;84.86;94296.02;1721973;82;21218;-51
2021/05/01 03:07:41;;;;;;;38.78;23.38;;;;;;;9.06;85.08;94300.02;1719598;82;21135;-50
2021/05/01 03:10:12;;;;;;;39.60;21.33;;;;;;;9.15;85.12;94302.05;1723019;82;21273;-50
2021/05/01 03:12:40;;;;;;;34.70;21.55;;;;;;;9.22;84.63;94303.93;1732426;81;21183;-51
2021/05/01 03:15:10;;;;;;;27.67;19.90;;;;;;;9.27;84.30;94314.94;1736869;81;21166;-51
2021/05/01 03:17:38;;;;;;;31.48;18.57;;;;;;;9.23;83.67;94304.70;1731626;81;21111;-52
2021/05/01 03:20:08;;;;;;;29.00;17.92;;;;;;;9.14;83.71;94300.52;1732243;81;21186;-51
2021/05/01 03:22:38;;;;;;;30.08;17.62;;;;;;;9.09;83.70;94313.45;1721331;81;21132;-51
2021/05/01 03:25:08;;;;;;;24.15;16.90;;;;;;;9.04;83.68;94316.78;1735949;82;21068;-50
2021/05/01 03:27:36;;;;;;;27.42;17.98;;;;;;;9.01;83.88;94321.77;1747183;82;21099;-50
2021/05/01 03:30:07;;;;;;;29.70;18.67;;;;;;;8.99;83.79;94329.69;1745142;82;21100;-51
2021/05/01 03:32:36;;;;;;;24.12;16.05;;;;;;;8.99;84.56;94322.23;1751443;81;21206;-51
2021/05/01 03:35:05;;;;;;;29.65;16.65;;;;;;;9.04;84.56;94322.27;1737695;81;22053;-52
2021/05/01 03:37:34;;;;;;;20.20;15.58;;;;;;;9.03;84.19;94314.63;1739158;81;21101;-51
2021/05/01 03:40:05;;;;;;;36.33;15.70;;;;;;;9.11;84.71;94315.14;1743671;82;21060;-52
2021/05/01 03:42:33;;;;;;;24.67;13.55;;;;;;;9.17;84.37;94313.34;1750590;81;21536;-50
2021/05/01 03:45:03;;;;;;;34.55;16.55;;;;;;;9.16;84.14;94318.08;1740696;81;21064;-51
2021/05/01 03:47:31;;;;;;;28.87;16.80;;;;;;;9.11;84.04;94322.00;1716467;81;22271;-51
2021/05/01 03:49:59;;;;;;;38.48;18.48;;;;;;;9.07;84.18;94320.75;1728237;82;21132;-51
2021/05/01 03:52:27;;;;;;;24.45;15.50;;;;;;;9.15;84.14;94319.89;1713379;82;21120;-51
2021/05/01 03:54:56;;;;;;;27.15;16.02;;;;;;;9.20;84.05;94319.30;1718079;82;21773;-51
2021/05/01 03:57:25;;;;;;;23.00;12.50;;;;;;;9.14;84.02;94315.02;1718452;81;21143;-51
2021/05/01 03:59:53;;;;;;;28.15;14.15;;;;;;;9.14;83.99;94317.77;1725446;82;21372;-50
2021/05/01 04:02:21;;;;;;;22.15;14.95;;;;;;;9.11;83.89;94324.13;1729395;81;21962;-49
2021/05/01 04:04:49;;;;;;;31.57;17.00;;;;;;;9.07;84.18;94322.75;1734477;82;21093;-51
2021/05/01 04:07:17;;;;;;;24.77;15.10;;;;;;;9.10;84.42;94325.34;1720578;82;21077;-51
2021/05/01 04:09:45;;;;;;;32.20;19.15;;;;;;;9.21;84.94;94327.09;1720109;82;21107;-51
2021/05/01 04:12:12;;;;;;;18.27;14.47;;;;;;;9.35;84.93;94327.95;1726849;82;21358;-52
2021/05/01 04:14:40;;;;;;;22.32;14.10;;;;;;;9.41;84.28;94328.89;1733868;82;21132;-51
2021/05/01 04:17:08;;;;;;;21.42;13.38;;;;;;;9.42;83.80;94335.16;1735609;82;21255;-51
2021/05/01 04:19:37;;;;;;;17.82;13.78;;;;;;;9.41;83.49;94324.02;1731391;82;21605;-52
2021/05/01 04:22:05;;;;;;;25.70;16.52;;;;;;;9.38;83.55;94328.42;1728628;82;21151;-51
2021/05/01 04:24:35;;;;;;;26.95;14.63;;;;;;;9.34;83.71;94327.02;1728886;82;21156;-51
2021/05/01 04:27:04;;;;;;;18.85;11.68;;;;;;;9.37;84.08;94332.39;1723288;82;21174;-50
2021/05/01 04:29:32;;;;;;;15.78;11.73;;;;;;;9.47;83.89;94324.34;1716198;82;21075;-50
2021/05/01 04:32:00;;;;;;;16.15;9.58;;;;;;;9.54;83.58;94320.56;1732198;81;21136;-52
2021/05/01 04:34:28;;;;;;;11.00;8.93;;;;;;;9.61;83.29;94319.69;1731597;82;21618;-50
2021/05/01 04:36:56;;;;;;;11.03;8.15;;;;;;;9.57;83.07;94316.32;1726069;82;21219;-50
2021/05/01 04:39:25;;;;;;;16.35;9.53;;;;;;;9.53;82.94;94324.53;1725178;81;21085;-51
2021/05/01 04:41:53;;;;;;;14.60;9.93;;;;;;;9.49;82.98;94315.66;1719646;82;21665;-50
2021/05/01 04:44:22;;;;;;;16.93;10.82;;;;;;;9.53;83.10;94321.78;1714690;82;21650;-51
2021/05/01 04:46:52;;;;;;;16.90;11.05;;;;;;;9.62;83.26;94327.33;1721162;82;21251;-52
2021/05/01 04:49:20;;;;;;;20.12;11.05;;;;;;;9.72;83.12;94331.04;1728754;82;21260;-50
2021/05/01 04:51:49;;;;;;;18.95;11.18;;;;;;;9.79;83.04;94337.62;1729112;82;21179;-51
2021/05/01 04:54:16;;;;;;;19.02;11.40;;;;;;;9.88;83.08;94338.27;1729938;82;21180;-50
2021/05/01 04:56:45;;;;;;;21.10;13.98;;;;;;;9.95;82.91;94332.52;1736519;82;21933;-50
2021/05/01 04:59:13;;;;;;;14.23;12.40;;;;;;;10.05;83.13;94335.45;1711033;82;21460;-51
2021/05/01 05:01:41;;;;;;;17.32;12.00;;;;;;;10.19;82.88;94329.41;1726649;81;21529;-51
2021/05/01 05:04:09;;;;;;;19.30;11.53;;;;;;;10.24;82.39;94323.30;1724603;82;21120;-52
2021/05/01 05:06:37;;;;;;;17.23;11.38;;;;;;;10.27;82.10;94316.28;1724264;82;21132;-51
2021/05/01 05:09:05;;;;;;;12.58;11.28;;;;;;;10.31;81.79;94316.15;1715228;82;21127;-52
2021/05/01 05:11:34;;;;;;;20.12;9.90;;;;;;;10.38;81.65;94320.72;1723925;82;21139;-51
2021/05/01 05:14:02;;;;;;;14.10;9.75;;;;;;;10.44;81.00;94307.92;1732195;82;21290;-51
2021/05/01 05:16:30;;;;;;;14.40;10.48;;;;;;;10.42;80.71;94304.86;1717352;82;21172;-50
2021/05/01 05:18:58;;;;;;;21.73;14.05;;;;;;;10.39;80.88;94300.87;1722024;82;21067;-50
2021/05/01 05:21:26;;;;;;;16.37;11.18;;;;;;;10.42;80.92;94299.36;1728938;82;21095;-51
2021/05/01 05:23:54;;;;;;;23.57;11.30;;;;;;;10.47;80.93;94291.09;1722885;82;21264;-50
2021/05/01 05:26:23;;;;;;;26.40;12.60;;;;;;;10.52;80.92;94291.89;1731213;82;21202;-51
2021/05/01 05:28:51;;;;;;;21.52;10.10;;;;;;;10.60;80.90;94293.88;1725172;82;21185;-51
2021/05/01 05:31:20;;;;;;;29.48;11.57;;;;;;;10.74;80.96;94291.27;1716878;82;21164;-52
2021/05/01 05:33:48;;;;;;;37.13;15.68;;;;;;;10.88;80.53;94296.17;1734973;82;21126;-51
2021/05/01 05:36:16;;;;;;;26.50;13.10;;;;;;;10.99;80.33;94301.20;1725226;82;21084;-50
2021/05/01 05:38:44;;;;;;;11.20;8.78;;;;;;;11.17;79.96;94301.94;1720636;82;21169;-51
2021/05/01 05:41:12;;;;;;;49.25;15.95;;;;;;;11.35;79.21;94310.16;1724895;82;21243;-53
2021/05/01 05:43:40;;;;;;;19.65;10.03;;;;;;;11.45;78.81;94308.16;1728817;81;21658;-52
2021/05/01 05:46:12;;;;;;;13.20;9.35;;;;;;;11.54;78.35;94316.41;1740055;81;21148;-51
2021/05/01 05:48:40;;;;;;;18.20;9.40;;;;;;;11.64;78.06;94306.30;1726865;82;21084;-52
2021/05/01 05:51:09;;;;;;;13.70;6.85;;;;;;;11.79;77.61;94311.91;1719795;82;22007;-53
2021/05/01 05:53:37;;;;;;;14.45;8.85;;;;;;;11.91;77.03;94315.84;1720900;81;21155;-51
2021/05/01 05:56:07;;;;;;;21.80;9.83;;;;;;;12.06;76.59;94311.81;1731485;82;21496;-55
2021/05/01 05:58:35;;;;;;;33.13;11.33;;;;;;;12.20;76.44;94315.24;1732435;82;21065;-54
2021/05/01 06:01:03;;;;;;;26.48;10.48;;;;;;;12.34;76.26;94309.82;1719457;82;21135;-54
2021/05/01 06:03:31;;;;;;;12.43;10.05;;;;;;;12.54;76.16;94305.23;1729529;81;21191;-53
2021/05/01 06:06:06;;;;;;;19.37;11.33;;;;;;;12.77;75.64;94307.84;1729331;82;21164;-52
2021/05/01 06:08:34;;;;;;;13.40;9.30;;;;;;;13.03;75.12;94313.02;1734766;82;21087;-51
2021/05/01 06:11:03;;;;;;;13.45;10.82;;;;;;;13.21;74.23;94310.88;1721081;82;21084;-52
2021/05/01 06:13:34;;;;;;;15.10;8.23;;;;;;;13.35;73.54;94305.99;1705988;82;21187;-54
2021/05/01 06:16:03;;;;;;;17.75;9.80;;;;;;;13.43;72.65;94313.30;1718129;82;21208;-52
2021/05/01 06:18:36;;;;;;;13.88;10.35;;;;;;;13.44;72.29;94320.34;1719008;82;21226;-52
2021/05/01 06:21:05;;;;;;;14.95;9.85;;;;;;;13.49;72.00;94314.89;1723391;82;22198;-52
2021/05/01 06:23:32;;;;;;;18.02;9.65;;;;;;;13.64;71.89;94306.63;1727993;82;21100;-53
2021/05/01 06:26:01;;;;;;;19.98;9.15;;;;;;;13.82;71.04;94298.13;1728817;82;21137;-52
2021/05/01 06:28:29;;;;;;;14.58;8.83;;;;;;;14.00;70.90;94292.37;1709136;81;21206;-54
2021/05/01 06:31:02;;;;;;;13.45;8.18;;;;;;;14.14;70.07;94286.06;1731585;81;21507;-52
2021/05/01 06:33:30;;;;;;;12.47;7.80;;;;;;;14.21;69.71;94292.59;1730244;82;21579;-55
2021/05/01 06:35:58;;;;;;;22.48;8.75;;;;;;;14.30;69.19;94295.23;1724870;82;21349;-53
2021/05/01 06:38:28;;;;;;;16.55;9.40;;;;;;;14.31;69.23;94290.61;1733850;82;21168;-52
2021/05/01 06:40:59;;;;;;;19.48;7.72;;;;;;;14.37;68.87;94287.93;1735195;82;21309;-52
2021/05/01 06:44:07;;;;;;;13.57;8.60;;;;;;;14.47;68.85;94274.22;1720871;82;21300;-54
2021/05/01 06:46:36;;;;;;;21.80;15.18;;;;;;;14.59;68.41;94269.63;1723771;81;21113;-53
2021/05/01 06:49:09;;;;;;;20.12;16.25;;;;;;;14.70;68.59;94269.13;1732822;82;21147;-55
2021/05/01 06:51:39;;;;;;;24.95;10.30;;;;;;;14.89;67.99;94266.22;1710328;82;21591;-53
2021/05/01 06:54:09;;;;;;;16.82;8.60;;;;;;;15.02;67.45;94270.75;1725008;82;21250;-55
2021/05/01 06:56:40;;;;;;;34.00;7.87;;;;;;;15.06;66.62;94271.32;1726611;82;21618;-54
2021/05/01 06:59:09;;;;;;;20.65;7.97;;;;;;;15.02;66.60;94267.98;1721212;82;21168;-55
2021/05/01 07:01:40;;;;;;;22.27;9.73;;;;;;;15.05;66.51;94268.41;1728677;81;21673;-52
2021/05/01 07:04:08;;;;;;;16.67;8.08;;;;;;;15.15;66.92;94271.16;1737854;82;21146;-54
2021/05/01 07:06:37;;;;;;;13.70;6.75;;;;;;;15.37;66.59;94256.16;1727161;82;22628;-54
2021/05/01 07:09:05;;;;;;;10.08;4.83;;;;;;;15.59;65.79;94259.16;1721770;82;21199;-54
2021/05/01 07:11:33;;;;;;;6.03;4.62;;;;;;;15.81;65.28;94262.13;1723259;82;21088;-53
2021/05/01 07:14:03;;;;;;;8.50;5.05;;;;;;;16.08;63.99;94264.33;1731168;81;21072;-55
2021/05/01 07:16:33;;;;;;;20.55;5.72;;;;;;;16.28;63.11;94264.22;1723006;81;21060;-54
2021/05/01 07:19:02;;;;;;;10.63;5.62;;;;;;;16.45;62.67;94259.55;1722380;82;21204;-53
2021/05/01 07:21:31;;;;;;;13.40;6.37;;;;;;;16.65;62.61;94252.46;1730478;82;21245;-55
2021/05/01 07:23:59;;;;;;;13.08;6.08;;;;;;;16.83;62.31;94248.65;1730561;82;21179;-55
2021/05/01 07:26:27;;;;;;;10.93;6.35;;;;;;;17.03;61.60;94242.91;1719752;82;21205;-55
2021/05/01 07:28:55;;;;;;;13.20;6.30;;;;;;;17.22;60.67;94237.64;1734029;82;21040;-56
2021/05/01 07:31:32;;;;;;;10.80;5.92;;;;;;;17.36;60.27;94243.64;1731477;82;21358;-54
2021/05/01 07:34:00;;;;;;;16.50;6.78;;;;;;;17.51;59.69;94235.22;1746124;81;21141;-53
2021/05/01 07:36:33;;;;;;;16.42;6.40;;;;;;;17.67;59.10;94229.53;1725370;82;21225;-54
2021/05/01 07:39:01;;;;;;;9.23;5.60;;;;;;;17.84;58.47;94226.88;1722852;82;21300;-53
2021/05/01 07:41:31;;;;;;;14.83;6.08;;;;;;;18.02;57.97;94228.39;1722230;82;21228;-54
2021/05/01 07:44:00;;;;;;;9.00;5.17;;;;;;;18.17;57.31;94226.85;1693970;82;21385;-52
2021/05/01 07:46:28;;;;;;;11.83;6.75;;;;;;;18.32;56.61;94227.37;1713009;82;21194;-51
2021/05/01 07:48:56;;;;;;;22.73;5.97;;;;;;;18.48;56.22;94227.97;1730928;82;21167;-53
2021/05/01 07:51:26;;;;;;;17.12;5.60;;;;;;;18.61;55.97;94230.98;1744544;81;21091;-53
2021/05/01 07:53:56;;;;;;;19.90;5.65;;;;;;;18.73;55.85;94229.04;1723142;82;21080;-52
2021/05/01 07:56:24;;;;;;;10.60;5.62;;;;;;;18.89;56.86;94231.63;1722023;82;21389;-55
2021/05/01 07:58:52;;;;;;;18.45;6.10;;;;;;;19.04;57.24;94228.64;1718727;82;21183;-55
2021/05/01 08:01:21;;;;;;;22.20;8.90;;;;;;;19.16;56.58;94228.75;1744470;81;21072;-54
2021/05/01 08:03:49;;;;;;;19.87;8.18;;;;;;;19.24;55.33;94233.92;1726672;82;21136;-53
2021/05/01 08:06:18;;;;;;;18.52;7.33;;;;;;;19.24;54.98;94238.73;1729719;82;21643;-54
2021/05/01 08:08:45;;;;;;;22.27;8.35;;;;;;;19.24;54.82;94239.50;1732998;82;21353;-56
2021/05/01 08:11:13;;;;;;;28.40;10.38;;;;;;;19.23;54.80;94240.74;1732764;82;21104;-54
2021/05/01 08:13:43;;;;;;;17.32;9.15;;;;;;;19.20;54.85;94243.17;1733181;82;21574;-52
2021/05/01 08:16:12;;;;;;;17.25;9.50;;;;;;;19.17;55.00;94241.42;1724281;82;21136;-55
2021/05/01 08:18:39;;;;;;;25.10;11.53;;;;;;;19.17;55.09;94234.45;1699171;82;21580;-52
2021/05/01 08:21:08;;;;;;;35.85;12.20;;;;;;;19.21;55.20;94226.56;1726137;82;21363;-56
2021/05/01 08:23:36;;;;;;;22.30;10.88;;;;;;;19.28;55.29;94228.82;1731460;81;21768;-53
2021/05/01 08:26:05;;;;;;;35.08;10.90;;;;;;;19.33;55.73;94221.05;1719654;82;21075;-53
2021/05/01 08:28:33;;;;;;;32.58;11.22;;;;;;;19.37;55.51;94224.97;1722206;82;21113;-52
2021/05/01 08:31:02;;;;;;;41.33;11.85;;;;;;;19.40;54.68;94227.46;1731873;82;21585;-55
2021/05/01 08:33:31;;;;;;;52.98;13.00;;;;;;;19.44;54.34;94229.98;1715606;82;21374;-52
2021/05/01 08:36:00;;;;;;;52.53;12.13;;;;;;;19.45;54.46;94223.13;1734107;82;21587;-53
2021/05/01 08:38:32;;;;;;;37.42;9.88;;;;;;;19.45;54.38;94221.11;1716549;82;21179;-53
2021/05/01 08:40:59;;;;;;;39.42;14.87;;;;;;;19.46;54.09;94221.85;1719207;82;21648;-53
2021/05/01 08:43:27;;;;;;;30.00;8.95;;;;;;;19.46;53.84;94228.20;1721411;82;21278;-55
2021/05/01 08:45:57;;;;;;;12.30;6.37;;;;;;;19.51;53.51;94216.25;1727836;82;21439;-52
2021/05/01 08:48:26;;;;;;;16.48;5.00;;;;;;;19.61;53.34;94220.25;1719408;82;21088;-53
2021/05/01 08:51:02;;;;;;;28.00;6.05;;;;;;;19.78;52.95;94227.09;1725624;82;21068;-54
2021/05/01 08:53:30;;;;;;;20.37;6.33;;;;;;;19.95;52.62;94218.70;1725289;82;21155;-52
2021/05/01 08:55:59;;;;;;;17.25;4.87;;;;;;;20.14;51.98;94220.34;1730109;82;21548;-53
2021/05/01 08:58:27;;;;;;;22.00;8.95;;;;;;;20.36;52.76;94222.19;1736638;82;21257;-52
2021/05/01 09:00:55;;;;;;;7.35;4.28;;;;;;;20.56;51.54;94225.92;1735050;82;21088;-52
2021/05/01 09:03:23;;;;;;;14.00;5.78;;;;;;;20.74;50.54;94228.01;1728546;82;21088;-52
2021/05/01 09:05:53;;;;;;;15.45;3.90;;;;;;;20.84;50.38;94220.80;1726849;82;21287;-54
2021/05/01 09:08:22;;;;;;;29.18;5.62;;;;;;;20.89;50.11;94215.80;1727902;82;21143;-52
2021/05/01 09:10:52;;;;;;;7.12;3.12;;;;;;;20.92;49.88;94219.67;1714446;82;21370;-53
2021/05/01 09:13:26;;;;;;;12.05;3.33;;;;;;;20.97;49.53;94216.70;1718683;82;21584;-54
2021/05/01 09:16:02;;;;;;;18.30;10.82;;;;;;;20.96;49.23;94210.34;1717883;82;21088;-54
2021/05/01 09:18:51;;;;;;;8.88;4.33;;;;;;;20.97;49.66;94206.91;1713602;82;23227;-54
2021/05/01 09:21:22;;;;;;;8.28;3.67;;;;;;;20.92;49.67;94201.50;1724950;82;21145;-55
2021/05/01 09:23:50;;;;;;;7.75;3.50;;;;;;;20.82;49.03;94202.36;1724974;82;21360;-54
2021/05/01 09:26:22;;;;;;;6.37;2.87;;;;;;;20.77;48.86;94201.80;1731885;82;21576;-53
2021/05/01 09:28:52;;;;;;;10.72;3.30;;;;;;;20.66;48.87;94204.08;1735779;82;21132;-54
2021/05/01 09:31:20;;;;;;;18.75;5.30;;;;;;;20.59;49.00;94205.30;1732239;82;21139;-54
2021/05/01 09:33:50;;;;;;;17.98;5.33;;;;;;;20.58;48.84;94196.14;1723999;82;21147;-55
2021/05/01 09:36:21;;;;;;;7.62;3.33;;;;;;;20.54;48.56;94199.88;1734617;82;21376;-55
2021/05/01 09:39:08;;;;;;;17.20;4.90;;;;;;;20.42;48.55;94193.54;1718189;82;21098;-54
2021/05/01 09:41:42;;;;;;;21.02;4.87;;;;;;;20.30;48.65;94197.72;1722762;80;21099;-53
2021/05/01 09:44:12;;;;;;;10.03;3.60;;;;;;;20.15;49.05;94190.36;1728535;81;21243;-53
2021/05/01 09:46:48;;;;;;;13.10;4.10;;;;;;;20.08;48.66;94204.91;1719682;82;21081;-54
2021/05/01 09:49:31;;;;;;;10.93;3.55;;;;;;;19.99;48.41;94208.02;1726658;82;22178;-55
2021/05/01 09:52:05;;;;;;;10.75;3.15;;;;;;;19.89;48.24;94211.02;1725563;81;21253;-55
2021/05/01 09:54:45;;;;;;;24.18;4.67;;;;;;;19.82;47.86;94200.42;1735211;82;21072;-53
2021/05/01 09:57:16;;;;;;;9.00;3.00;;;;;;;19.77;48.38;94201.20;1724249;81;21142;-53
2021/05/01 09:59:47;;;;;;;11.45;3.12;;;;;;;19.74;47.93;94200.84;1732863;82;21222;-53
2021/05/01 10:02:25;;;;;;;8.43;4.03;;;;;;;19.73;48.13;94189.56;1726444;82;21494;-53
2021/05/01 10:05:13;;;;;;;19.55;3.05;;;;;;;19.76;48.54;94189.92;1722633;81;21560;-53
2021/05/01 10:07:50;;;;;;;5.95;1.95;;;;;;;19.78;48.77;94188.02;1740645;82;21155;-53
2021/05/01 10:10:19;;;;;;;6.67;3.10;;;;;;;19.81;48.76;94185.57;1727867;82;21195;-53
2021/05/01 10:12:48;;;;;;;11.18;3.40;;;;;;;19.82;49.12;94187.09;1725834;82;21071;-54
2021/05/01 10:15:23;;;;;;;9.55;3.85;;;;;;;19.80;49.01;94186.85;1723728;81;21376;-54
2021/05/01 10:17:53;;;;;;;6.22;3.27;;;;;;;19.80;49.26;94191.81;1729356;82;21140;-54
2021/05/01 10:20:22;;;;;;;20.40;5.87;;;;;;;19.79;48.03;94200.07;1727905;82;21179;-53
2021/05/01 10:22:50;;;;;;;13.05;4.30;;;;;;;19.80;48.17;94211.36;1733784;82;21579;-52
2021/05/01 10:25:29;;;;;;;14.40;4.40;;;;;;;19.78;46.62;94222.91;1737201;82;21116;-53
2021/05/01 10:28:03;;;;;;;4.50;2.80;;;;;;;19.60;45.84;94232.66;1746092;81;21360;-53
2021/05/01 10:30:34;;;;;;;6.10;4.25;;;;;;;19.40;46.12;94241.41;1741242;81;21163;-56
2021/05/01 10:33:30;;;;;;;13.75;4.75;;;;;;;19.22;47.20;94248.25;1731696;81;21024;-52
2021/05/01 10:36:25;;;;;;;10.80;2.83;;;;;;;19.02;48.79;94254.14;1732514;82;21112;-54
2021/05/01 10:39:09;;;;;;;9.48;2.40;;;;;;;18.76;48.93;94267.65;1731076;82;21076;-52
2021/05/01 10:41:38;;;;;;;7.72;2.92;;;;;;;18.51;49.85;94282.05;1718234;81;21216;-53
2021/05/01 10:44:07;;;;;;;5.25;2.20;;;;;;;18.31;49.79;94288.52;1723110;82;21827;-55
2021/05/01 10:46:41;;;;;;;7.67;2.87;;;;;;;18.15;49.98;94289.91;1733022;82;21529;-52
2021/05/01 10:49:10;;;;;;;10.90;2.65;;;;;;;18.07;50.22;94284.70;1744417;82;21154;-54
2021/05/01 10:51:50;;;;;;;7.40;2.70;;;;;;;18.01;51.14;94293.69;1730947;82;21231;-54
2021/05/01 10:54:20;;;;;;;5.05;2.10;;;;;;;17.97;51.94;94295.97;1718961;81;21847;-52
2021/05/01 10:56:52;;;;;;;10.63;2.50;;;;;;;17.92;52.03;94289.75;1720703;82;21127;-52
2021/05/01 10:59:32;;;;;;;6.00;2.62;;;;;;;17.87;52.95;94292.67;1734137;82;21112;-55
2021/05/01 11:02:01;;;;;;;2.90;2.33;;;;;;;17.80;53.68;94295.94;1717736;82;21166;-52
2021/05/01 11:04:32;;;;;;;4.45;2.92;;;;;;;17.71;54.20;94302.38;1726480;82;21179;-52
2021/05/01 11:07:26;;;;;;;5.72;2.83;;;;;;;17.64;54.35;94293.14;1727126;82;22128;-52
2021/05/01 11:09:54;;;;;;;11.75;7.92;;;;;;;17.57;55.96;94306.91;1724926;82;21083;-54
2021/05/01 11:12:23;;;;;;;10.25;4.70;;;;;;;17.50;58.42;94300.43;1722516;82;21152;-53
2021/05/01 11:15:10;;;;;;;8.88;5.03;;;;;;;17.40;59.77;94296.38;1726708;82;21100;-53
2021/05/01 11:18:03;;;;;;;7.58;3.40;;;;;;;17.28;60.00;94292.65;1732864;82;21175;-53
2021/05/01 11:20:32;;;;;;;6.20;3.90;;;;;;;17.17;61.73;94296.16;1719307;82;21209;-54
2021/05/01 11:23:00;;;;;;;6.08;4.05;;;;;;;17.06;62.04;94298.14;1724538;82;21128;-55
2021/05/01 11:25:30;;;;;;;35.88;25.95;;;;;;;16.98;62.41;94297.08;1732325;82;21108;-54
2021/05/01 11:27:58;;;;;;;12.65;8.73;;;;;;;16.96;63.21;94302.38;1728944;82;21604;-53
2021/05/01 11:30:29;;;;;;;9.90;5.65;;;;;;;16.93;63.60;94300.59;1727981;82;21116;-53
2021/05/01 11:32:58;;;;;;;18.87;12.05;;;;;;;16.93;64.55;94301.98;1734515;82;21283;-52
2021/05/01 11:35:27;;;;;;;39.98;31.37;;;;;;;16.90;65.37;94307.16;1729488;82;21152;-51
2021/05/01 11:37:58;;;;;;;48.08;36.80;;;;;;;16.78;66.05;94287.52;1730520;82;21500;-53
2021/05/01 11:40:32;;;;;;;18.05;12.65;;;;;;;16.67;67.08;94283.27;1720710;82;21077;-54